In Rescue
 
Open Full Screen Window  High Contrast Mode
Wind Gusting 20 knots
12
April 20, 2024 8:43 AM CDT
Weather Information
Wind Direction
  310 °
Wind Speed
  12 kt (14 mph)
Wind Gust
  20 kt (23 mph)
Altimeter
30.27 in
Visibility
10 SM
Temperature
-01° C
30° F
Dewpoint
-07° C
19° F
Humidity
64%
Sky Condition
Broken @ 3,200 ft
Broken @ 2,800 ft
MVFR

METAR KADC 201343Z AUTO 31012G20KT 10SM BKN028 BKN032 M01/M07 A3027 RMK AO2

FAA Disclaimer: The data displayed is for advisory purposes only and is not to be used for flight planning or operations.